createdAt,value
2019-03-27T00:04:09.511Z,20.80
2019-03-27T00:09:18.312Z,26.03
2019-03-27T00:14:25.179Z,20.35
2019-03-27T00:19:31.991Z,18.53
2019-03-27T00:24:39.190Z,27.50
2019-03-27T00:29:46.259Z,25.90
2019-03-27T00:34:53.163Z,21.73
2019-03-27T00:40:00.331Z,24.70
2019-03-27T00:45:08.124Z,28.83
2019-03-27T00:50:15.089Z,26.77
2019-03-27T00:55:22.006Z,29.43
2019-03-27T01:00:34.706Z,22.57
2019-03-27T01:05:41.832Z,28.10
2019-03-27T01:10:49.522Z,25.03
2019-03-27T01:15:56.331Z,26.83
2019-03-27T01:21:03.427Z,22.40
2019-03-27T01:26:10.246Z,23.13
2019-03-27T01:31:17.215Z,28.27
2019-03-27T01:36:24.242Z,26.37
2019-03-27T01:41:31.234Z,24.63
2019-03-27T01:46:38.293Z,26.90
2019-03-27T01:51:45.280Z,29.60
2019-03-27T01:56:52.091Z,29.12
2019-03-27T02:01:59.398Z,32.73
2019-03-27T02:07:06.399Z,27.22
2019-03-27T02:12:13.233Z,23.87
2019-03-27T02:17:20.326Z,27.90
2019-03-27T02:22:27.141Z,24.30
2019-03-27T02:27:34.091Z,32.23
2019-03-27T02:32:40.975Z,34.07
2019-03-27T02:37:48.720Z,26.40
2019-03-27T02:42:55.599Z,29.87
2019-03-27T02:48:03.573Z,30.90
2019-03-27T02:53:10.598Z,28.73
2019-03-27T02:58:19.168Z,24.57
2019-03-27T03:03:25.993Z,28.80
2019-03-27T03:08:32.912Z,20.90
2019-03-27T03:13:39.822Z,24.80
2019-03-27T03:18:46.658Z,25.60
2019-03-27T03:23:53.504Z,29.77
2019-03-27T03:29:00.671Z,28.67
2019-03-27T03:34:09.126Z,22.10
2019-03-27T03:39:16.755Z,29.47
2019-03-27T03:44:24.271Z,29.40
2019-03-27T03:49:31.203Z,24.13
2019-03-27T03:54:38.339Z,29.67
2019-03-27T03:59:45.981Z,31.23
2019-03-27T04:04:55.516Z,30.97
2019-03-27T04:10:02.581Z,35.20
2019-03-27T04:15:09.496Z,28.17
2019-03-27T04:20:16.321Z,43.28
2019-03-27T04:25:23.206Z,34.17
2019-03-27T04:30:30.189Z,27.60
2019-03-27T04:35:37.114Z,34.70
2019-03-27T04:40:44.018Z,32.60
2019-03-27T04:45:50.799Z,35.00
2019-03-27T04:50:58.088Z,36.83
2019-03-27T04:56:05.548Z,37.30
2019-03-27T05:01:15.612Z,29.20
2019-03-27T05:06:22.944Z,29.32
2019-03-27T05:11:29.791Z,35.37
2019-03-27T05:16:36.795Z,35.10
2019-03-27T05:21:43.700Z,41.27
2019-03-27T05:26:50.968Z,36.03
2019-03-27T05:31:57.787Z,35.23
2019-03-27T05:37:04.744Z,33.67
2019-03-27T05:42:11.683Z,29.03
2019-03-27T05:47:18.728Z,32.70
2019-03-27T05:52:25.594Z,37.00
2019-03-27T05:57:32.632Z,37.03
2019-03-27T06:02:39.608Z,37.00
2019-03-27T06:07:46.644Z,32.23
2019-03-27T06:12:53.532Z,35.77
2019-03-27T06:18:12.549Z,38.50
2019-03-27T06:23:08.878Z,39.67
2019-03-27T06:28:15.903Z,35.65
2019-03-27T06:33:22.948Z,44.93
2019-03-27T06:38:29.842Z,40.07
2019-03-27T06:43:36.813Z,39.70
2019-03-27T06:48:43.688Z,43.13
2019-03-27T06:53:51.807Z,38.97
2019-03-27T06:58:58.712Z,40.03
2019-03-27T07:04:10.854Z,42.23
2019-03-27T07:09:16.141Z,36.50
2019-03-27T07:14:23.025Z,33.85
2019-03-27T07:19:29.931Z,38.67
2019-03-27T07:24:36.948Z,32.63
2019-03-27T07:29:43.798Z,31.77
2019-03-27T07:34:50.812Z,33.00
2019-03-27T07:39:57.771Z,36.47
2019-03-27T07:45:05.000Z,26.93
2019-03-27T07:50:13.039Z,26.70
2019-03-27T07:55:20.117Z,25.33
2019-03-27T08:00:27.040Z,25.57
2019-03-27T08:05:33.916Z,22.37
2019-03-27T08:10:40.932Z,23.43
2019-03-27T08:15:47.758Z,24.33
2019-03-27T08:20:54.931Z,25.33
2019-03-27T08:26:01.714Z,22.53
2019-03-27T08:31:08.779Z,20.97
2019-03-27T08:36:15.578Z,23.47
2019-03-27T08:41:22.356Z,23.00
2019-03-27T08:46:29.157Z,23.22
2019-03-27T08:51:35.930Z,20.73
2019-03-27T08:56:42.939Z,15.10
2019-03-27T09:01:51.235Z,19.13
2019-03-27T09:06:58.116Z,18.43
2019-03-27T09:12:05.944Z,18.20
2019-03-27T09:17:12.764Z,13.65
2019-03-27T09:22:19.544Z,14.70
2019-03-27T09:27:26.485Z,16.90
2019-03-27T09:32:33.315Z,15.10
2019-03-27T09:37:40.183Z,14.23
2019-03-27T09:42:46.973Z,13.17
2019-03-27T09:47:53.910Z,11.23
2019-03-27T09:53:00.871Z,12.15
2019-03-27T09:58:08.483Z,12.03
2019-03-27T10:03:15.396Z,11.80
2019-03-27T10:08:22.294Z,12.55
2019-03-27T10:13:29.218Z,11.03
2019-03-27T10:18:36.624Z,11.97
2019-03-27T10:23:43.630Z,15.23
2019-03-27T10:28:50.408Z,11.87
2019-03-27T10:33:57.216Z,15.75
2019-03-27T10:39:05.581Z,9.25
2019-03-27T10:44:12.657Z,9.37
2019-03-27T10:49:19.517Z,11.07
2019-03-27T10:54:26.407Z,7.53
2019-03-27T10:59:33.821Z,10.58
2019-03-27T11:04:41.448Z,7.53
2019-03-27T11:09:48.864Z,9.45
2019-03-27T11:14:55.716Z,9.80
2019-03-27T11:20:02.654Z,8.17
2019-03-27T11:25:09.900Z,8.87
2019-03-27T11:30:17.084Z,9.28
2019-03-27T11:35:24.039Z,9.70
2019-03-27T11:40:31.626Z,8.13
2019-03-27T11:45:38.806Z,10.63
2019-03-27T11:50:45.687Z,7.70
2019-03-27T11:55:52.795Z,11.93
2019-03-27T12:00:59.593Z,5.47
2019-03-27T12:06:06.470Z,7.70
2019-03-27T12:11:13.314Z,6.45
2019-03-27T12:16:20.226Z,5.77
2019-03-27T12:21:27.043Z,5.73
2019-03-27T12:26:33.940Z,7.55
2019-03-27T12:31:42.381Z,7.03
2019-03-27T12:36:49.189Z,6.35
2019-03-27T12:41:57.334Z,6.45
2019-03-27T12:47:22.978Z,6.42
2019-03-27T12:52:30.010Z,7.73
2019-03-27T12:57:38.268Z,9.08
2019-03-27T13:02:45.087Z,7.70
2019-03-27T13:07:51.947Z,7.28
2019-03-27T13:12:58.800Z,10.30
2019-03-27T13:18:06.047Z,7.28
2019-03-27T13:23:13.028Z,8.43
2019-03-27T13:28:20.081Z,9.23
2019-03-27T13:33:27.027Z,7.60
2019-03-27T13:38:33.877Z,10.53
2019-03-27T13:43:40.751Z,10.10
2019-03-27T13:48:47.652Z,8.43
2019-03-27T13:53:54.490Z,6.73
2019-03-27T13:59:01.767Z,8.10
2019-03-27T14:04:09.626Z,10.53
2019-03-27T14:09:16.579Z,6.77
2019-03-27T14:14:23.420Z,9.40
2019-03-27T14:19:31.192Z,8.50
2019-03-27T14:24:38.019Z,10.87
2019-03-27T14:29:45.050Z,7.23
2019-03-27T14:34:53.856Z,9.43
2019-03-27T14:40:00.423Z,9.63
2019-03-27T14:45:09.112Z,9.13
2019-03-27T14:50:16.184Z,9.85
2019-03-27T14:55:23.012Z,5.83
2019-03-27T15:00:29.774Z,7.47
2019-03-27T15:05:36.624Z,8.47
2019-03-27T15:10:43.446Z,6.30
2019-03-27T15:15:50.946Z,7.30
2019-03-27T15:20:57.927Z,8.23
2019-03-27T15:26:05.841Z,5.40
2019-03-27T15:31:20.395Z,8.17
2019-03-27T15:36:21.357Z,6.67
2019-03-27T15:41:28.182Z,7.37
2019-03-27T15:46:35.136Z,6.30
2019-03-27T15:51:43.664Z,9.63
2019-03-27T15:56:50.652Z,10.63
2019-03-27T16:01:58.070Z,7.33
2019-03-27T16:07:05.840Z,6.85
2019-03-27T16:12:12.671Z,7.63
2019-03-27T16:17:20.573Z,7.37
2019-03-27T16:22:27.537Z,8.17
2019-03-27T16:27:34.483Z,7.23
2019-03-27T16:32:41.528Z,7.37
2019-03-27T16:37:48.457Z,7.80
2019-03-27T16:42:55.312Z,7.75
2019-03-27T16:48:02.143Z,9.93
2019-03-27T16:53:08.973Z,9.47
2019-03-27T16:58:17.152Z,7.53
2019-03-27T17:03:23.979Z,7.73
2019-03-27T17:08:30.887Z,8.15
2019-03-27T17:13:37.811Z,16.93
2019-03-27T17:18:44.657Z,11.10
2019-03-27T17:23:51.474Z,11.40
2019-03-27T17:28:59.437Z,20.55
2019-03-27T17:34:07.535Z,10.03
2019-03-27T17:39:14.518Z,10.37
2019-03-27T17:44:21.445Z,9.63
2019-03-27T17:49:28.374Z,7.30
2019-03-27T17:54:35.321Z,10.23
2019-03-27T17:59:42.379Z,8.10
2019-03-27T18:04:49.356Z,9.88
2019-03-27T18:09:56.300Z,9.03
2019-03-27T18:15:04.211Z,10.00
2019-03-27T18:20:11.956Z,8.33
2019-03-27T18:25:19.116Z,9.23
2019-03-27T18:30:25.984Z,9.75
2019-03-27T18:35:32.874Z,9.33
2019-03-27T18:40:39.782Z,8.20
2019-03-27T18:45:46.969Z,10.20
2019-03-27T18:50:53.834Z,9.20
2019-03-27T18:56:01.795Z,12.63
2019-03-27T19:01:09.174Z,11.60
2019-03-27T19:06:16.069Z,12.47
2019-03-27T19:11:23.070Z,11.03
2019-03-27T19:16:29.863Z,13.57
2019-03-27T19:21:36.691Z,13.77
2019-03-27T19:26:43.635Z,11.47
2019-03-27T19:31:50.418Z,12.83
2019-03-27T19:36:57.208Z,17.23
2019-03-27T19:42:04.090Z,13.37
2019-03-27T19:47:11.339Z,14.43
2019-03-27T19:52:18.171Z,10.87
2019-03-27T19:57:25.172Z,14.10
2019-03-27T20:02:32.631Z,10.88
2019-03-27T20:07:39.614Z,13.50
2019-03-27T20:12:47.531Z,10.93
2019-03-27T20:17:54.338Z,15.85
2019-03-27T20:23:13.909Z,14.60
2019-03-27T20:28:09.891Z,14.67
2019-03-27T20:33:16.886Z,15.73
2019-03-27T20:38:24.314Z,12.37
2019-03-27T20:43:31.273Z,17.03
2019-03-27T20:48:42.405Z,11.40
2019-03-27T20:53:48.252Z,17.40
2019-03-27T20:58:55.124Z,19.63
2019-03-27T21:04:02.979Z,14.43
2019-03-27T21:09:10.918Z,14.97
2019-03-27T21:14:18.517Z,13.03
2019-03-27T21:19:25.585Z,13.87
2019-03-27T21:24:32.781Z,13.93
2019-03-27T21:29:39.585Z,12.00
2019-03-27T21:34:47.375Z,13.43
2019-03-27T21:39:54.696Z,17.47
2019-03-27T21:45:01.673Z,12.93
2019-03-27T21:50:10.808Z,14.60
2019-03-27T21:55:22.757Z,11.60
2019-03-27T22:00:39.753Z,12.83
2019-03-27T22:05:47.146Z,11.77
2019-03-27T22:10:54.967Z,15.30
2019-03-27T22:16:01.927Z,13.17
2019-03-27T22:21:09.849Z,11.57
2019-03-27T22:26:17.194Z,10.10
2019-03-27T22:31:24.564Z,11.17
2019-03-27T22:36:31.497Z,10.43
2019-03-27T22:41:38.731Z,11.67
2019-03-27T22:46:45.751Z,11.07
2019-03-27T22:51:53.150Z,12.20
2019-03-27T22:57:00.122Z,10.77
2019-03-27T23:02:07.093Z,10.97
2019-03-27T23:07:14.661Z,11.90
2019-03-27T23:12:21.602Z,12.37
2019-03-27T23:17:28.556Z,12.17
2019-03-27T23:22:35.506Z,13.57
2019-03-27T23:27:42.742Z,12.97
2019-03-27T23:32:49.783Z,13.13
2019-03-27T23:37:56.852Z,12.03
2019-03-27T23:43:03.997Z,13.67
2019-03-27T23:48:11.012Z,10.40
2019-03-27T23:53:18.905Z,11.53
2019-03-27T23:58:25.867Z,10.97
